sensor_id;sensor_type;location;lat;lon;timestamp;P1;durP1;ratioP1;P2;durP2;ratioP2
15677;SDS011;7939;50.814;6.368;2024-01-11T00:00:52;28.57;;;15.97;;
15677;SDS011;7939;50.814;6.368;2024-01-11T00:03:19;29.67;;;16.73;;
15677;SDS011;7939;50.814;6.368;2024-01-11T00:05:47;33.37;;;16.60;;
15677;SDS011;7939;50.814;6.368;2024-01-11T00:08:13;31.60;;;16.63;;
15677;SDS011;7939;50.814;6.368;2024-01-11T00:10:40;27.20;;;15.87;;
15677;SDS011;7939;50.814;6.368;2024-01-11T00:13:07;27.57;;;15.17;;
15677;SDS011;7939;50.814;6.368;2024-01-11T00:15:33;29.07;;;15.80;;
15677;SDS011;7939;50.814;6.368;2024-01-11T00:18:00;31.47;;;16.53;;
15677;SDS011;7939;50.814;6.368;2024-01-11T00:20:27;32.07;;;16.20;;
15677;SDS011;7939;50.814;6.368;2024-01-11T00:22:55;27.80;;;16.43;;
15677;SDS011;7939;50.814;6.368;2024-01-11T00:25:22;28.37;;;16.20;;
15677;SDS011;7939;50.814;6.368;2024-01-11T00:27:48;28.17;;;16.77;;
15677;SDS011;7939;50.814;6.368;2024-01-11T00:30:15;32.73;;;17.70;;
15677;SDS011;7939;50.814;6.368;2024-01-11T00:32:42;29.90;;;17.30;;
15677;SDS011;7939;50.814;6.368;2024-01-11T00:35:09;29.57;;;15.87;;
15677;SDS011;7939;50.814;6.368;2024-01-11T00:37:35;28.93;;;16.50;;
15677;SDS011;7939;50.814;6.368;2024-01-11T00:40:04;33.53;;;17.00;;
15677;SDS011;7939;50.814;6.368;2024-01-11T00:42:31;29.03;;;16.30;;
15677;SDS011;7939;50.814;6.368;2024-01-11T00:44:59;32.10;;;17.97;;
15677;SDS011;7939;50.814;6.368;2024-01-11T00:47:26;32.93;;;17.87;;
15677;SDS011;7939;50.814;6.368;2024-01-11T00:49:53;28.30;;;16.63;;
15677;SDS011;7939;50.814;6.368;2024-01-11T00:52:20;28.57;;;16.30;;
15677;SDS011;7939;50.814;6.368;2024-01-11T00:54:46;29.33;;;17.07;;
15677;SDS011;7939;50.814;6.368;2024-01-11T00:57:14;31.00;;;16.90;;
15677;SDS011;7939;50.814;6.368;2024-01-11T00:59:41;30.10;;;15.97;;
15677;SDS011;7939;50.814;6.368;2024-01-11T01:02:08;33.07;;;17.13;;
15677;SDS011;7939;50.814;6.368;2024-01-11T01:04:37;34.30;;;16.87;;
15677;SDS011;7939;50.814;6.368;2024-01-11T01:07:04;28.77;;;15.10;;
15677;SDS011;7939;50.814;6.368;2024-01-11T01:09:30;28.17;;;15.43;;
15677;SDS011;7939;50.814;6.368;2024-01-11T01:11:57;28.60;;;15.87;;
15677;SDS011;7939;50.814;6.368;2024-01-11T01:14:25;27.53;;;15.90;;
15677;SDS011;7939;50.814;6.368;2024-01-11T01:16:52;32.33;;;15.93;;
15677;SDS011;7939;50.814;6.368;2024-01-11T01:19:18;27.20;;;15.67;;
15677;SDS011;7939;50.814;6.368;2024-01-11T01:21:45;26.00;;;14.93;;
15677;SDS011;7939;50.814;6.368;2024-01-11T01:24:12;31.03;;;15.70;;
15677;SDS011;7939;50.814;6.368;2024-01-11T01:26:38;26.67;;;15.53;;
15677;SDS011;7939;50.814;6.368;2024-01-11T01:29:05;24.50;;;15.53;;
15677;SDS011;7939;50.814;6.368;2024-01-11T01:31:33;27.27;;;15.07;;
15677;SDS011;7939;50.814;6.368;2024-01-11T01:34:02;25.27;;;15.37;;
15677;SDS011;7939;50.814;6.368;2024-01-11T01:36:29;30.97;;;15.43;;
15677;SDS011;7939;50.814;6.368;2024-01-11T01:38:56;24.13;;;13.70;;
15677;SDS011;7939;50.814;6.368;2024-01-11T01:41:23;31.43;;;14.33;;
15677;SDS011;7939;50.814;6.368;2024-01-11T01:43:49;24.20;;;13.77;;
15677;SDS011;7939;50.814;6.368;2024-01-11T01:46:18;24.73;;;14.33;;
15677;SDS011;7939;50.814;6.368;2024-01-11T01:48:49;28.73;;;14.47;;
15677;SDS011;7939;50.814;6.368;2024-01-11T01:51:16;23.20;;;13.33;;
15677;SDS011;7939;50.814;6.368;2024-01-11T01:53:43;32.10;;;15.00;;
15677;SDS011;7939;50.814;6.368;2024-01-11T01:56:10;26.63;;;14.33;;
15677;SDS011;7939;50.814;6.368;2024-01-11T01:58:37;25.43;;;15.33;;
15677;SDS011;7939;50.814;6.368;2024-01-11T02:01:04;25.50;;;14.23;;
15677;SDS011;7939;50.814;6.368;2024-01-11T02:03:31;27.90;;;14.33;;
15677;SDS011;7939;50.814;6.368;2024-01-11T02:05:59;22.77;;;13.30;;
15677;SDS011;7939;50.814;6.368;2024-01-11T02:08:27;24.67;;;13.87;;
15677;SDS011;7939;50.814;6.368;2024-01-11T02:10:54;22.97;;;12.70;;
15677;SDS011;7939;50.814;6.368;2024-01-11T02:13:21;24.90;;;13.87;;
15677;SDS011;7939;50.814;6.368;2024-01-11T02:15:48;21.43;;;12.93;;
15677;SDS011;7939;50.814;6.368;2024-01-11T02:18:15;25.27;;;14.87;;
15677;SDS011;7939;50.814;6.368;2024-01-11T02:20:42;23.90;;;13.40;;
15677;SDS011;7939;50.814;6.368;2024-01-11T02:23:11;26.93;;;14.00;;
15677;SDS011;7939;50.814;6.368;2024-01-11T02:25:44;22.07;;;13.50;;
15677;SDS011;7939;50.814;6.368;2024-01-11T02:28:11;25.47;;;13.90;;
15677;SDS011;7939;50.814;6.368;2024-01-11T02:30:37;24.80;;;13.70;;
15677;SDS011;7939;50.814;6.368;2024-01-11T02:33:04;23.80;;;14.27;;
15677;SDS011;7939;50.814;6.368;2024-01-11T02:35:31;25.87;;;14.17;;
15677;SDS011;7939;50.814;6.368;2024-01-11T02:37:58;26.90;;;14.37;;
15677;SDS011;7939;50.814;6.368;2024-01-11T02:40:26;25.27;;;12.80;;
15677;SDS011;7939;50.814;6.368;2024-01-11T02:42:56;25.80;;;13.73;;
15677;SDS011;7939;50.814;6.368;2024-01-11T02:45:23;22.00;;;13.77;;
15677;SDS011;7939;50.814;6.368;2024-01-11T02:47:50;25.70;;;13.27;;
15677;SDS011;7939;50.814;6.368;2024-01-11T02:50:17;25.07;;;14.27;;
15677;SDS011;7939;50.814;6.368;2024-01-11T02:52:43;23.77;;;13.90;;
15677;SDS011;7939;50.814;6.368;2024-01-11T02:55:10;22.40;;;13.27;;
15677;SDS011;7939;50.814;6.368;2024-01-11T02:57:37;21.23;;;12.53;;
15677;SDS011;7939;50.814;6.368;2024-01-11T03:00:05;26.43;;;14.67;;
15677;SDS011;7939;50.814;6.368;2024-01-11T03:02:33;24.07;;;13.07;;
15677;SDS011;7939;50.814;6.368;2024-01-11T03:04:59;24.63;;;14.47;;
15677;SDS011;7939;50.814;6.368;2024-01-11T03:07:26;24.93;;;14.03;;
15677;SDS011;7939;50.814;6.368;2024-01-11T03:09:53;27.90;;;14.03;;
15677;SDS011;7939;50.814;6.368;2024-01-11T03:12:20;24.37;;;13.17;;
15677;SDS011;7939;50.814;6.368;2024-01-11T03:14:47;26.83;;;14.27;;
15677;SDS011;7939;50.814;6.368;2024-01-11T03:17:15;25.20;;;13.97;;
15677;SDS011;7939;50.814;6.368;2024-01-11T03:19:41;25.17;;;14.20;;
15677;SDS011;7939;50.814;6.368;2024-01-11T03:22:08;25.13;;;13.20;;
15677;SDS011;7939;50.814;6.368;2024-01-11T03:24:37;33.13;;;14.70;;
15677;SDS011;7939;50.814;6.368;2024-01-11T03:27:04;23.17;;;13.47;;
15677;SDS011;7939;50.814;6.368;2024-01-11T03:29:31;25.10;;;13.03;;
15677;SDS011;7939;50.814;6.368;2024-01-11T03:31:58;22.47;;;12.43;;
15677;SDS011;7939;50.814;6.368;2024-01-11T03:34:26;23.23;;;12.60;;
15677;SDS011;7939;50.814;6.368;2024-01-11T03:36:53;25.77;;;14.03;;
15677;SDS011;7939;50.814;6.368;2024-01-11T03:39:20;23.80;;;13.10;;
15677;SDS011;7939;50.814;6.368;2024-01-11T03:41:46;24.33;;;13.10;;
15677;SDS011;7939;50.814;6.368;2024-01-11T03:44:14;24.73;;;13.27;;
15677;SDS011;7939;50.814;6.368;2024-01-11T03:46:40;23.80;;;13.70;;
15677;SDS011;7939;50.814;6.368;2024-01-11T03:49:07;28.03;;;12.60;;
15677;SDS011;7939;50.814;6.368;2024-01-11T03:51:35;23.27;;;12.50;;
15677;SDS011;7939;50.814;6.368;2024-01-11T03:54:02;27.83;;;14.37;;
15677;SDS011;7939;50.814;6.368;2024-01-11T03:56:29;28.53;;;13.93;;
15677;SDS011;7939;50.814;6.368;2024-01-11T03:58:55;27.67;;;13.47;;
15677;SDS011;7939;50.814;6.368;2024-01-11T04:01:22;27.23;;;13.70;;
15677;SDS011;7939;50.814;6.368;2024-01-11T04:03:49;24.10;;;13.07;;
15677;SDS011;7939;50.814;6.368;2024-01-11T04:06:19;32.70;;;16.93;;
15677;SDS011;7939;50.814;6.368;2024-01-11T04:08:48;25.80;;;13.23;;
15677;SDS011;7939;50.814;6.368;2024-01-11T04:11:15;26.90;;;14.30;;
15677;SDS011;7939;50.814;6.368;2024-01-11T04:13:42;24.60;;;13.00;;
15677;SDS011;7939;50.814;6.368;2024-01-11T04:16:08;30.60;;;15.17;;
15677;SDS011;7939;50.814;6.368;2024-01-11T04:18:35;27.07;;;13.97;;
15677;SDS011;7939;50.814;6.368;2024-01-11T04:21:02;22.43;;;12.67;;
15677;SDS011;7939;50.814;6.368;2024-01-11T04:23:29;24.97;;;13.33;;
15677;SDS011;7939;50.814;6.368;2024-01-11T04:25:57;28.00;;;14.50;;
15677;SDS011;7939;50.814;6.368;2024-01-11T04:28:23;24.10;;;12.90;;
15677;SDS011;7939;50.814;6.368;2024-01-11T04:30:50;25.20;;;13.77;;
15677;SDS011;7939;50.814;6.368;2024-01-11T04:33:16;26.17;;;14.27;;
15677;SDS011;7939;50.814;6.368;2024-01-11T04:35:43;24.53;;;13.33;;
15677;SDS011;7939;50.814;6.368;2024-01-11T04:38:10;26.43;;;14.53;;
15677;SDS011;7939;50.814;6.368;2024-01-11T04:40:36;23.17;;;13.13;;
15677;SDS011;7939;50.814;6.368;2024-01-11T04:43:04;25.97;;;14.33;;
15677;SDS011;7939;50.814;6.368;2024-01-11T04:45:32;21.27;;;12.00;;
15677;SDS011;7939;50.814;6.368;2024-01-11T04:47:59;25.47;;;13.90;;
15677;SDS011;7939;50.814;6.368;2024-01-11T04:50:26;24.23;;;12.93;;
15677;SDS011;7939;50.814;6.368;2024-01-11T04:52:52;28.43;;;14.67;;
15677;SDS011;7939;50.814;6.368;2024-01-11T04:55:19;29.10;;;14.50;;
15677;SDS011;7939;50.814;6.368;2024-01-11T04:57:46;28.10;;;13.60;;
15677;SDS011;7939;50.814;6.368;2024-01-11T05:00:14;27.20;;;15.37;;
15677;SDS011;7939;50.814;6.368;2024-01-11T05:02:41;31.00;;;15.63;;
15677;SDS011;7939;50.814;6.368;2024-01-11T05:05:08;28.17;;;14.37;;
15677;SDS011;7939;50.814;6.368;2024-01-11T05:07:34;27.63;;;15.20;;
15677;SDS011;7939;50.814;6.368;2024-01-11T05:10:01;28.43;;;14.33;;
15677;SDS011;7939;50.814;6.368;2024-01-11T05:12:28;27.83;;;15.20;;
15677;SDS011;7939;50.814;6.368;2024-01-11T05:14:54;33.70;;;16.97;;
15677;SDS011;7939;50.814;6.368;2024-01-11T05:17:22;33.73;;;17.27;;
15677;SDS011;7939;50.814;6.368;2024-01-11T05:19:49;33.40;;;15.97;;
15677;SDS011;7939;50.814;6.368;2024-01-11T05:22:16;37.27;;;17.80;;
15677;SDS011;7939;50.814;6.368;2024-01-11T05:24:43;33.20;;;17.30;;
15677;SDS011;7939;50.814;6.368;2024-01-11T05:27:09;35.20;;;18.33;;
15677;SDS011;7939;50.814;6.368;2024-01-11T05:29:36;40.20;;;18.93;;
15677;SDS011;7939;50.814;6.368;2024-01-11T05:32:03;40.97;;;17.10;;
15677;SDS011;7939;50.814;6.368;2024-01-11T05:34:31;34.70;;;17.23;;
15677;SDS011;7939;50.814;6.368;2024-01-11T05:36:58;30.37;;;15.93;;
15677;SDS011;7939;50.814;6.368;2024-01-11T05:39:24;39.13;;;20.10;;
15677;SDS011;7939;50.814;6.368;2024-01-11T05:41:51;32.23;;;15.93;;
15677;SDS011;7939;50.814;6.368;2024-01-11T05:44:18;32.00;;;15.73;;
15677;SDS011;7939;50.814;6.368;2024-01-11T05:46:45;29.93;;;16.80;;
15677;SDS011;7939;50.814;6.368;2024-01-11T05:49:12;37.17;;;18.20;;
15677;SDS011;7939;50.814;6.368;2024-01-11T05:51:40;29.00;;;16.93;;
15677;SDS011;7939;50.814;6.368;2024-01-11T05:54:06;28.00;;;14.43;;
15677;SDS011;7939;50.814;6.368;2024-01-11T05:56:33;31.70;;;16.30;;
15677;SDS011;7939;50.814;6.368;2024-01-11T05:59:00;26.43;;;14.73;;
15677;SDS011;7939;50.814;6.368;2024-01-11T06:01:26;32.07;;;16.67;;
15677;SDS011;7939;50.814;6.368;2024-01-11T06:03:53;25.70;;;15.47;;
15677;SDS011;7939;50.814;6.368;2024-01-11T06:06:20;29.97;;;16.67;;
15677;SDS011;7939;50.814;6.368;2024-01-11T06:08:48;30.93;;;16.70;;
15677;SDS011;7939;50.814;6.368;2024-01-11T06:11:15;27.50;;;15.83;;
15677;SDS011;7939;50.814;6.368;2024-01-11T06:13:43;33.47;;;16.53;;
15677;SDS011;7939;50.814;6.368;2024-01-11T06:16:10;28.70;;;15.37;;
15677;SDS011;7939;50.814;6.368;2024-01-11T06:18:36;29.73;;;16.27;;
15677;SDS011;7939;50.814;6.368;2024-01-11T06:21:03;27.00;;;15.77;;
15677;SDS011;7939;50.814;6.368;2024-01-11T06:23:30;31.83;;;15.17;;
15677;SDS011;7939;50.814;6.368;2024-01-11T06:25:58;27.33;;;15.00;;
15677;SDS011;7939;50.814;6.368;2024-01-11T06:28:25;32.83;;;16.93;;
15677;SDS011;7939;50.814;6.368;2024-01-11T06:30:51;30.80;;;15.37;;
15677;SDS011;7939;50.814;6.368;2024-01-11T06:33:18;26.00;;;16.17;;
15677;SDS011;7939;50.814;6.368;2024-01-11T06:35:45;28.47;;;15.20;;
15677;SDS011;7939;50.814;6.368;2024-01-11T06:38:12;37.00;;;20.00;;
15677;SDS011;7939;50.814;6.368;2024-01-11T06:40:39;28.30;;;16.03;;
15677;SDS011;7939;50.814;6.368;2024-01-11T06:43:07;31.17;;;16.03;;
15677;SDS011;7939;50.814;6.368;2024-01-11T06:45:33;29.93;;;15.77;;
15677;SDS011;7939;50.814;6.368;2024-01-11T06:48:00;27.97;;;14.93;;
15677;SDS011;7939;50.814;6.368;2024-01-11T06:50:27;24.67;;;14.67;;
15677;SDS011;7939;50.814;6.368;2024-01-11T06:52:53;28.00;;;15.50;;
15677;SDS011;7939;50.814;6.368;2024-01-11T06:55:20;32.50;;;16.53;;
15677;SDS011;7939;50.814;6.368;2024-01-11T06:57:47;30.77;;;16.87;;
15677;SDS011;7939;50.814;6.368;2024-01-11T07:00:15;30.27;;;15.60;;
15677;SDS011;7939;50.814;6.368;2024-01-11T07:02:42;24.40;;;13.70;;
15677;SDS011;7939;50.814;6.368;2024-01-11T07:05:09;28.60;;;15.50;;
15677;SDS011;7939;50.814;6.368;2024-01-11T07:07:36;24.43;;;15.63;;
15677;SDS011;7939;50.814;6.368;2024-01-11T07:10:04;26.03;;;15.00;;
15677;SDS011;7939;50.814;6.368;2024-01-11T07:12:34;30.30;;;15.67;;
15677;SDS011;7939;50.814;6.368;2024-01-11T07:15:02;27.70;;;15.03;;
15677;SDS011;7939;50.814;6.368;2024-01-11T07:17:31;31.50;;;16.47;;
15677;SDS011;7939;50.814;6.368;2024-01-11T07:19:57;29.47;;;15.63;;
15677;SDS011;7939;50.814;6.368;2024-01-11T07:22:24;25.03;;;14.37;;
15677;SDS011;7939;50.814;6.368;2024-01-11T07:24:51;31.47;;;16.50;;
15677;SDS011;7939;50.814;6.368;2024-01-11T07:27:18;29.03;;;17.67;;
15677;SDS011;7939;50.814;6.368;2024-01-11T07:29:44;26.47;;;14.53;;
15677;SDS011;7939;50.814;6.368;2024-01-11T07:32:11;28.80;;;15.43;;
15677;SDS011;7939;50.814;6.368;2024-01-11T07:34:39;29.53;;;16.23;;
15677;SDS011;7939;50.814;6.368;2024-01-11T07:37:06;32.07;;;17.50;;
15677;SDS011;7939;50.814;6.368;2024-01-11T07:39:33;29.53;;;16.50;;
15677;SDS011;7939;50.814;6.368;2024-01-11T07:42:00;33.67;;;16.90;;
15677;SDS011;7939;50.814;6.368;2024-01-11T07:44:28;29.47;;;15.70;;
15677;SDS011;7939;50.814;6.368;2024-01-11T07:46:54;29.67;;;15.97;;
15677;SDS011;7939;50.814;6.368;2024-01-11T07:49:21;28.50;;;15.70;;
15677;SDS011;7939;50.814;6.368;2024-01-11T07:51:49;31.23;;;16.37;;
15677;SDS011;7939;50.814;6.368;2024-01-11T07:54:16;28.70;;;14.73;;
15677;SDS011;7939;50.814;6.368;2024-01-11T07:56:42;30.63;;;15.17;;
15677;SDS011;7939;50.814;6.368;2024-01-11T07:59:09;35.23;;;16.97;;
15677;SDS011;7939;50.814;6.368;2024-01-11T08:01:38;27.03;;;15.17;;
15677;SDS011;7939;50.814;6.368;2024-01-11T08:04:05;32.20;;;16.57;;
15677;SDS011;7939;50.814;6.368;2024-01-11T08:06:32;27.80;;;15.23;;
15677;SDS011;7939;50.814;6.368;2024-01-11T08:09:00;29.03;;;16.77;;
15677;SDS011;7939;50.814;6.368;2024-01-11T08:11:29;30.93;;;17.73;;
15677;SDS011;7939;50.814;6.368;2024-01-11T08:13:56;29.67;;;16.77;;
15677;SDS011;7939;50.814;6.368;2024-01-11T08:16:23;32.47;;;16.67;;
15677;SDS011;7939;50.814;6.368;2024-01-11T08:18:49;29.80;;;16.10;;
15677;SDS011;7939;50.814;6.368;2024-01-11T08:21:16;27.43;;;15.60;;
15677;SDS011;7939;50.814;6.368;2024-01-11T08:23:43;27.20;;;15.93;;
15677;SDS011;7939;50.814;6.368;2024-01-11T08:26:12;32.37;;;17.60;;
15677;SDS011;7939;50.814;6.368;2024-01-11T08:28:39;31.63;;;16.70;;
15677;SDS011;7939;50.814;6.368;2024-01-11T08:31:06;32.97;;;16.97;;
15677;SDS011;7939;50.814;6.368;2024-01-11T08:33:34;29.93;;;17.13;;
15677;SDS011;7939;50.814;6.368;2024-01-11T08:36:01;33.70;;;18.83;;
15677;SDS011;7939;50.814;6.368;2024-01-11T08:38:28;36.57;;;19.07;;
15677;SDS011;7939;50.814;6.368;2024-01-11T08:40:55;33.87;;;18.67;;
15677;SDS011;7939;50.814;6.368;2024-01-11T08:43:25;37.33;;;20.13;;
15677;SDS011;7939;50.814;6.368;2024-01-11T08:45:51;27.87;;;16.60;;
15677;SDS011;7939;50.814;6.368;2024-01-11T08:48:19;33.87;;;18.10;;
15677;SDS011;7939;50.814;6.368;2024-01-11T08:50:45;33.03;;;17.87;;
15677;SDS011;7939;50.814;6.368;2024-01-11T08:53:12;33.90;;;19.20;;
15677;SDS011;7939;50.814;6.368;2024-01-11T08:55:39;32.27;;;18.17;;
15677;SDS011;7939;50.814;6.368;2024-01-11T08:58:05;37.10;;;20.47;;
15677;SDS011;7939;50.814;6.368;2024-01-11T09:00:33;36.90;;;21.00;;
15677;SDS011;7939;50.814;6.368;2024-01-11T09:03:00;34.67;;;19.80;;
15677;SDS011;7939;50.814;6.368;2024-01-11T09:05:27;41.73;;;19.47;;
15677;SDS011;7939;50.814;6.368;2024-01-11T09:07:53;37.37;;;18.63;;
15677;SDS011;7939;50.814;6.368;2024-01-11T09:10:20;34.67;;;19.03;;
15677;SDS011;7939;50.814;6.368;2024-01-11T09:12:47;40.27;;;20.33;;
15677;SDS011;7939;50.814;6.368;2024-01-11T09:15:14;39.10;;;21.43;;
15677;SDS011;7939;50.814;6.368;2024-01-11T09:17:42;33.90;;;20.53;;
15677;SDS011;7939;50.814;6.368;2024-01-11T09:20:09;35.03;;;18.70;;
15677;SDS011;7939;50.814;6.368;2024-01-11T09:22:39;39.97;;;19.03;;
15677;SDS011;7939;50.814;6.368;2024-01-11T09:25:06;33.87;;;19.80;;
15677;SDS011;7939;50.814;6.368;2024-01-11T09:27:34;40.50;;;20.97;;
15677;SDS011;7939;50.814;6.368;2024-01-11T09:30:00;39.63;;;19.73;;
15677;SDS011;7939;50.814;6.368;2024-01-11T09:32:27;40.30;;;21.60;;
15677;SDS011;7939;50.814;6.368;2024-01-11T09:34:56;37.07;;;20.93;;
15677;SDS011;7939;50.814;6.368;2024-01-11T09:37:23;41.63;;;21.90;;
15677;SDS011;7939;50.814;6.368;2024-01-11T09:39:50;42.37;;;21.57;;
15677;SDS011;7939;50.814;6.368;2024-01-11T09:42:16;41.03;;;21.43;;
15677;SDS011;7939;50.814;6.368;2024-01-11T09:44:44;35.10;;;19.53;;
15677;SDS011;7939;50.814;6.368;2024-01-11T09:47:12;39.00;;;19.70;;
15677;SDS011;7939;50.814;6.368;2024-01-11T09:49:41;41.60;;;21.27;;
15677;SDS011;7939;50.814;6.368;2024-01-11T09:52:10;33.47;;;19.50;;
15677;SDS011;7939;50.814;6.368;2024-01-11T09:54:39;35.03;;;19.80;;
15677;SDS011;7939;50.814;6.368;2024-01-11T09:57:06;38.23;;;18.13;;
15677;SDS011;7939;50.814;6.368;2024-01-11T09:59:35;37.70;;;20.87;;
15677;SDS011;7939;50.814;6.368;2024-01-11T10:02:02;41.57;;;21.13;;
15677;SDS011;7939;50.814;6.368;2024-01-11T10:04:33;47.17;;;21.60;;
15677;SDS011;7939;50.814;6.368;2024-01-11T10:07:00;43.07;;;23.10;;
15677;SDS011;7939;50.814;6.368;2024-01-11T10:09:32;39.27;;;22.23;;
15677;SDS011;7939;50.814;6.368;2024-01-11T10:11:58;45.97;;;23.33;;
15677;SDS011;7939;50.814;6.368;2024-01-11T10:14:25;47.93;;;23.80;;
15677;SDS011;7939;50.814;6.368;2024-01-11T10:16:53;48.40;;;26.57;;
15677;SDS011;7939;50.814;6.368;2024-01-11T10:19:20;51.70;;;26.13;;
15677;SDS011;7939;50.814;6.368;2024-01-11T10:21:47;52.33;;;27.37;;
15677;SDS011;7939;50.814;6.368;2024-01-11T10:24:17;50.97;;;25.53;;
15677;SDS011;7939;50.814;6.368;2024-01-11T10:26:47;51.67;;;27.87;;
15677;SDS011;7939;50.814;6.368;2024-01-11T10:29:13;56.70;;;27.90;;
15677;SDS011;7939;50.814;6.368;2024-01-11T10:31:40;52.53;;;26.20;;
15677;SDS011;7939;50.814;6.368;2024-01-11T10:34:07;50.50;;;27.40;;
15677;SDS011;7939;50.814;6.368;2024-01-11T10:36:33;52.73;;;25.43;;
15677;SDS011;7939;50.814;6.368;2024-01-11T10:39:01;51.87;;;26.13;;
15677;SDS011;7939;50.814;6.368;2024-01-11T10:41:31;51.40;;;26.23;;
15677;SDS011;7939;50.814;6.368;2024-01-11T10:44:04;37.30;;;22.60;;
15677;SDS011;7939;50.814;6.368;2024-01-11T10:46:37;48.73;;;25.23;;
15677;SDS011;7939;50.814;6.368;2024-01-11T10:49:05;49.40;;;26.03;;
15677;SDS011;7939;50.814;6.368;2024-01-11T10:51:34;45.23;;;24.97;;
15677;SDS011;7939;50.814;6.368;2024-01-11T10:54:01;51.57;;;27.07;;
15677;SDS011;7939;50.814;6.368;2024-01-11T10:56:28;55.27;;;28.67;;
15677;SDS011;7939;50.814;6.368;2024-01-11T10:58:57;44.63;;;27.10;;
15677;SDS011;7939;50.814;6.368;2024-01-11T11:01:26;55.43;;;27.13;;
15677;SDS011;7939;50.814;6.368;2024-01-11T11:03:53;50.53;;;28.87;;
15677;SDS011;7939;50.814;6.368;2024-01-11T11:06:22;51.30;;;28.20;;
15677;SDS011;7939;50.814;6.368;2024-01-11T11:08:49;54.53;;;28.47;;
15677;SDS011;7939;50.814;6.368;2024-01-11T11:11:17;39.83;;;23.13;;
15677;SDS011;7939;50.814;6.368;2024-01-11T11:13:46;51.87;;;26.50;;
15677;SDS011;7939;50.814;6.368;2024-01-11T11:16:14;45.63;;;27.07;;
15677;SDS011;7939;50.814;6.368;2024-01-11T11:18:42;57.23;;;28.53;;
15677;SDS011;7939;50.814;6.368;2024-01-11T11:21:09;53.10;;;26.70;;
15677;SDS011;7939;50.814;6.368;2024-01-11T11:23:37;56.80;;;29.40;;
15677;SDS011;7939;50.814;6.368;2024-01-11T11:26:05;56.33;;;28.13;;
15677;SDS011;7939;50.814;6.368;2024-01-11T11:28:33;46.90;;;25.17;;
15677;SDS011;7939;50.814;6.368;2024-01-11T11:31:02;51.07;;;27.47;;
15677;SDS011;7939;50.814;6.368;2024-01-11T11:33:29;51.70;;;28.13;;
15677;SDS011;7939;50.814;6.368;2024-01-11T11:35:58;64.70;;;28.93;;
15677;SDS011;7939;50.814;6.368;2024-01-11T11:38:26;56.83;;;29.30;;
15677;SDS011;7939;50.814;6.368;2024-01-11T11:40:54;53.17;;;27.93;;
15677;SDS011;7939;50.814;6.368;2024-01-11T11:43:22;53.27;;;29.20;;
15677;SDS011;7939;50.814;6.368;2024-01-11T11:45:50;54.83;;;27.90;;
15677;SDS011;7939;50.814;6.368;2024-01-11T11:51:21;45.80;;;24.07;;
15677;SDS011;7939;50.814;6.368;2024-01-11T11:53:50;49.83;;;28.53;;
15677;SDS011;7939;50.814;6.368;2024-01-11T11:56:19;57.67;;;27.67;;
15677;SDS011;7939;50.814;6.368;2024-01-11T11:58:47;49.10;;;26.47;;
15677;SDS011;7939;50.814;6.368;2024-01-11T12:01:17;47.07;;;26.53;;
15677;SDS011;7939;50.814;6.368;2024-01-11T12:03:43;50.67;;;27.20;;
15677;SDS011;7939;50.814;6.368;2024-01-11T12:06:14;56.77;;;29.07;;
15677;SDS011;7939;50.814;6.368;2024-01-11T12:08:43;51.33;;;27.50;;
15677;SDS011;7939;50.814;6.368;2024-01-11T12:11:12;46.83;;;26.73;;
15677;SDS011;7939;50.814;6.368;2024-01-11T12:13:40;59.87;;;29.37;;
15677;SDS011;7939;50.814;6.368;2024-01-11T12:16:09;57.50;;;30.17;;
15677;SDS011;7939;50.814;6.368;2024-01-11T12:18:36;58.23;;;31.67;;
15677;SDS011;7939;50.814;6.368;2024-01-11T12:21:03;52.73;;;28.87;;
15677;SDS011;7939;50.814;6.368;2024-01-11T12:23:30;53.17;;;28.77;;
15677;SDS011;7939;50.814;6.368;2024-01-11T12:25:59;54.97;;;30.33;;
15677;SDS011;7939;50.814;6.368;2024-01-11T12:28:27;55.20;;;30.83;;
15677;SDS011;7939;50.814;6.368;2024-01-11T12:30:54;52.17;;;27.43;;
15677;SDS011;7939;50.814;6.368;2024-01-11T12:33:21;51.67;;;29.30;;
15677;SDS011;7939;50.814;6.368;2024-01-11T12:35:48;49.90;;;27.93;;
15677;SDS011;7939;50.814;6.368;2024-01-11T12:38:15;52.00;;;27.73;;
15677;SDS011;7939;50.814;6.368;2024-01-11T12:40:42;47.90;;;27.27;;
15677;SDS011;7939;50.814;6.368;2024-01-11T12:43:11;50.67;;;29.87;;
15677;SDS011;7939;50.814;6.368;2024-01-11T12:45:37;48.90;;;27.07;;
15677;SDS011;7939;50.814;6.368;2024-01-11T12:48:06;49.37;;;27.37;;
15677;SDS011;7939;50.814;6.368;2024-01-11T12:50:34;60.53;;;29.13;;
15677;SDS011;7939;50.814;6.368;2024-01-11T12:53:05;60.90;;;36.13;;
15677;SDS011;7939;50.814;6.368;2024-01-11T12:55:33;64.50;;;37.42;;
15677;SDS011;7939;50.814;6.368;2024-01-11T12:58:04;53.83;;;29.53;;
15677;SDS011;7939;50.814;6.368;2024-01-11T13:00:36;50.77;;;28.83;;
15677;SDS011;7939;50.814;6.368;2024-01-11T13:03:03;47.73;;;28.03;;
15677;SDS011;7939;50.814;6.368;2024-01-11T13:05:30;48.37;;;26.30;;
15677;SDS011;7939;50.814;6.368;2024-01-11T13:08:00;57.37;;;30.90;;
15677;SDS011;7939;50.814;6.368;2024-01-11T13:10:29;52.33;;;28.97;;
15677;SDS011;7939;50.814;6.368;2024-01-11T13:12:58;43.33;;;26.30;;
15677;SDS011;7939;50.814;6.368;2024-01-11T13:15:25;49.77;;;27.90;;
15677;SDS011;7939;50.814;6.368;2024-01-11T13:17:53;53.47;;;25.63;;
15677;SDS011;7939;50.814;6.368;2024-01-11T13:20:20;59.70;;;29.43;;
15677;SDS011;7939;50.814;6.368;2024-01-11T13:22:46;52.07;;;27.23;;
15677;SDS011;7939;50.814;6.368;2024-01-11T13:25:13;46.70;;;25.90;;
15677;SDS011;7939;50.814;6.368;2024-01-11T13:27:40;46.27;;;26.73;;
15677;SDS011;7939;50.814;6.368;2024-01-11T13:30:07;43.20;;;25.20;;
15677;SDS011;7939;50.814;6.368;2024-01-11T13:32:34;48.07;;;26.07;;
15677;SDS011;7939;50.814;6.368;2024-01-11T13:35:02;47.30;;;26.90;;
15677;SDS011;7939;50.814;6.368;2024-01-11T13:37:29;59.05;;;33.17;;
15677;SDS011;7939;50.814;6.368;2024-01-11T13:39:56;60.08;;;35.55;;
15677;SDS011;7939;50.814;6.368;2024-01-11T13:42:23;53.40;;;29.67;;
15677;SDS011;7939;50.814;6.368;2024-01-11T13:44:49;57.13;;;30.37;;
15677;SDS011;7939;50.814;6.368;2024-01-11T13:47:16;53.13;;;29.50;;
15677;SDS011;7939;50.814;6.368;2024-01-11T13:49:42;53.83;;;29.00;;
15677;SDS011;7939;50.814;6.368;2024-01-11T13:52:12;52.40;;;29.07;;
15677;SDS011;7939;50.814;6.368;2024-01-11T13:54:39;54.57;;;28.13;;
15677;SDS011;7939;50.814;6.368;2024-01-11T13:57:05;53.27;;;28.57;;
15677;SDS011;7939;50.814;6.368;2024-01-11T13:59:32;51.60;;;28.73;;
15677;SDS011;7939;50.814;6.368;2024-01-11T14:01:59;50.47;;;25.80;;
15677;SDS011;7939;50.814;6.368;2024-01-11T14:04:25;49.00;;;27.43;;
15677;SDS011;7939;50.814;6.368;2024-01-11T14:06:52;51.83;;;26.40;;
15677;SDS011;7939;50.814;6.368;2024-01-11T14:09:20;51.73;;;26.73;;
15677;SDS011;7939;50.814;6.368;2024-01-11T14:11:48;47.10;;;25.37;;
15677;SDS011;7939;50.814;6.368;2024-01-11T14:14:14;48.47;;;26.17;;
15677;SDS011;7939;50.814;6.368;2024-01-11T14:16:43;53.33;;;27.23;;
15677;SDS011;7939;50.814;6.368;2024-01-11T14:19:10;53.93;;;28.43;;
15677;SDS011;7939;50.814;6.368;2024-01-11T14:21:36;51.57;;;27.97;;
15677;SDS011;7939;50.814;6.368;2024-01-11T14:24:03;52.60;;;28.17;;
15677;SDS011;7939;50.814;6.368;2024-01-11T14:26:32;55.33;;;30.57;;
15677;SDS011;7939;50.814;6.368;2024-01-11T14:28:59;53.77;;;30.47;;
15677;SDS011;7939;50.814;6.368;2024-01-11T14:31:26;53.10;;;28.97;;
15677;SDS011;7939;50.814;6.368;2024-01-11T14:33:53;49.50;;;28.20;;
15677;SDS011;7939;50.814;6.368;2024-01-11T14:36:20;51.83;;;29.83;;